Time;durP1;ratioP1;P1;durP2;ratioP2;P2;SDS_P1;SDS_P2;PMS_P1;PMS_P2;Temp;Humidity;BMP_temperature;BMP_pressure;BME280_temperature;BME280_humidity;BME280_pressure;Samples;Min_cycle;Max_cycle;Signal;HPM_P1;HPM_P2
2023/12/07 06:14:25;;;;;;;9.70;6.10;;;;;;;-1.73;100.00;100761.00;107174;1280;22511;-50
2023/12/07 06:16:52;;;;;;;10.20;6.00;;;;;;;-1.69;100.00;100767.02;109759;1272;22343;-42
2023/12/07 06:19:18;;;;;;;8.70;6.30;;;;;;;-1.68;100.00;100766.55;109519;1269;22838;-43
2023/12/07 06:21:45;;;;;;;9.00;5.50;;;;;;;-1.66;100.00;100770.41;109853;1272;23116;-50
2023/12/07 06:24:14;;;;;;;9.00;6.30;;;;;;;-1.64;100.00;100764.02;108960;1280;22479;-50
2023/12/07 06:26:42;;;;;;;9.00;5.10;;;;;;;-1.61;100.00;100764.57;108931;1278;24498;-43
2023/12/07 06:29:09;;;;;;;8.10;5.50;;;;;;;-1.61;99.95;100765.42;109299;1273;23070;-50
2023/12/07 06:31:36;;;;;;;6.90;5.00;;;;;;;-1.64;99.82;100769.19;109270;1262;22602;-47
2023/12/07 06:34:07;;;;;;;9.20;5.60;;;;;;;-1.65;99.97;100772.00;108864;1274;25254;-42
2023/12/07 06:36:57;;;;;;;9.50;5.90;;;;;;;-1.64;100.00;100771.56;109154;1272;23282;-43
2023/12/07 06:39:42;;;;;;;10.80;5.80;;;;;;;-1.60;100.00;100773.70;108998;1272;22350;-49
2023/12/07 06:42:50;;;;;;;10.00;6.30;;;;;;;-1.53;100.00;100770.48;109116;1277;24161;-43
2023/12/07 06:45:32;;;;;;;11.30;6.50;;;;;;;-1.46;100.00;100766.95;108730;1272;24271;-50
2023/12/07 06:47:59;;;;;;;8.50;5.40;;;;;;;-1.40;100.00;100769.80;108571;1277;25355;-50
2023/12/07 06:50:44;;;;;;;9.90;6.00;;;;;;;-1.35;100.00;100775.58;109237;1268;22372;-48
2023/12/07 06:53:18;;;;;;;8.00;4.80;;;;;;;-1.25;100.00;100783.47;109117;1275;22215;-48
2023/12/07 06:55:45;;;;;;;11.20;5.50;;;;;;;-1.17;100.00;100779.14;109182;1264;22411;-43
2023/12/07 06:58:12;;;;;;;7.30;4.80;;;;;;;-1.12;99.96;100773.59;109648;1272;22798;-45
2023/12/07 07:00:40;;;;;;;10.90;5.80;;;;;;;-1.06;99.79;100770.81;109581;1262;22214;-51
2023/12/07 07:03:07;;;;;;;11.40;6.40;;;;;;;-1.02;99.60;100766.94;109170;1275;22393;-43
2023/12/07 07:05:47;;;;;;;9.30;5.10;;;;;;;-0.94;99.73;100765.30;108872;1272;23412;-48
2023/12/07 07:08:14;;;;;;;8.90;5.00;;;;;;;-0.86;99.79;100769.34;108003;1262;22545;-50
2023/12/07 07:10:43;;;;;;;7.70;5.10;;;;;;;-0.79;99.64;100770.38;109336;1265;23228;-42
2023/12/07 07:13:10;;;;;;;8.80;5.40;;;;;;;-0.76;99.06;100768.48;109820;1272;23174;-44
2023/12/07 07:15:45;;;;;;;10.30;5.20;;;;;;;-0.76;98.78;100767.79;108757;1266;22529;-49
2023/12/07 07:18:28;;;;;;;9.50;5.60;;;;;;;-0.77;98.57;100764.31;109031;1269;22150;-43
2023/12/07 07:20:56;;;;;;;10.00;5.30;;;;;;;-0.77;99.00;100765.15;109199;1275;22362;-42
2023/12/07 07:23:35;;;;;;;10.20;6.40;;;;;;;-0.79;98.67;100767.98;109655;1275;22522;-43
2023/12/07 07:26:09;;;;;;;14.20;6.90;;;;;;;-0.79;99.07;100774.34;109099;1272;23010;-50
2023/12/07 07:28:50;;;;;;;9.70;5.90;;;;;;;-0.79;99.17;100774.52;109106;1272;23025;-50
2023/12/07 07:31:17;;;;;;;10.20;5.80;;;;;;;-0.78;99.47;100776.42;109418;1265;22921;-43
2023/12/07 07:33:46;;;;;;;11.70;6.60;;;;;;;-0.78;99.70;100771.29;109653;1272;22354;-43
2023/12/07 07:36:17;;;;;;;9.70;6.50;;;;;;;-0.76;99.72;100772.05;109623;1266;22376;-43
2023/12/07 07:38:44;;;;;;;14.80;7.70;;;;;;;-0.73;99.81;100773.95;109680;1275;22219;-43
2023/12/07 07:41:11;;;;;;;12.40;6.40;;;;;;;-0.70;99.82;100769.82;109593;1275;22466;-41
2023/12/07 07:43:37;;;;;;;11.50;7.10;;;;;;;-0.66;100.00;100776.20;108598;1275;22836;-49
2023/12/07 07:46:05;;;;;;;10.40;7.20;;;;;;;-0.64;100.00;100781.11;109632;1265;22312;-43
2023/12/07 07:48:32;;;;;;;13.40;6.70;;;;;;;-0.61;99.99;100786.92;109763;1265;22261;-49
2023/12/07 07:50:59;;;;;;;8.70;5.60;;;;;;;-0.59;99.90;100794.07;109896;1270;22312;-48
2023/12/07 07:53:26;;;;;;;11.30;6.60;;;;;;;-0.58;99.91;100796.55;109505;1272;22529;-42
2023/12/07 07:55:52;;;;;;;10.60;6.00;;;;;;;-0.58;99.92;100800.33;109778;1272;22391;-48
2023/12/07 07:58:20;;;;;;;9.30;6.20;;;;;;;-0.58;99.84;100802.89;109781;1272;22319;-47
2023/12/07 08:00:48;;;;;;;14.80;7.10;;;;;;;-0.60;99.56;100805.83;109358;1278;23292;-48
2023/12/07 08:03:14;;;;;;;11.00;6.20;;;;;;;-0.64;99.44;100804.77;109379;1278;25354;-42
2023/12/07 08:05:42;;;;;;;10.60;6.60;;;;;;;-0.66;99.86;100799.67;109720;1276;22293;-49
2023/12/07 08:08:09;;;;;;;11.10;7.30;;;;;;;-0.68;99.56;100801.28;109741;1262;23296;-49
2023/12/07 08:11:40;;;;;;;14.40;7.10;;;;;;;-0.72;99.74;100801.23;109106;1271;22307;-50
2023/12/07 08:14:08;;;;;;;9.60;6.70;;;;;;;-0.75;99.91;100799.05;109311;1278;23214;-43
2023/12/07 08:16:46;;;;;;;9.30;6.60;;;;;;;-0.73;100.00;100800.84;109237;1281;22268;-43
2023/12/07 08:20:07;;;;;;;9.90;6.50;;;;;;;-0.72;100.00;100798.16;109373;1275;22960;-50
2023/12/07 08:23:38;;;;;;;10.70;6.40;;;;;;;-0.74;100.00;100794.99;109061;1268;22491;-43
2023/12/07 08:27:00;;;;;;;12.10;7.00;;;;;;;-0.77;100.00;100789.30;109409;1272;22418;-49
2023/12/07 08:30:11;;;;;;;10.80;7.00;;;;;;;-0.77;100.00;100786.40;109332;1272;22698;-43
2023/12/07 08:33:34;;;;;;;14.40;7.40;;;;;;;-0.77;100.00;100783.85;109168;1265;23324;-49
2023/12/07 08:36:49;;;;;;;11.20;6.50;;;;;;;-0.81;100.00;100787.25;109690;1275;22894;-42
2023/12/07 08:42:51;;;;;;;15.30;9.10;;;;;;;-0.88;100.00;100784.99;109624;1275;22415;-41
2023/12/07 08:45:19;;;;;;;13.30;7.90;;;;;;;-0.87;100.00;100785.21;109146;1275;23164;-43
2023/12/07 08:47:46;;;;;;;17.50;9.10;;;;;;;-0.87;100.00;100781.11;109078;1275;22475;-48
2023/12/07 08:50:13;;;;;;;17.10;9.80;;;;;;;-0.85;100.00;100773.52;109708;1271;22466;-49
2023/12/07 08:52:40;;;;;;;15.70;8.60;;;;;;;-0.80;100.00;100770.83;109732;1267;22384;-52
2023/12/07 08:55:16;;;;;;;15.60;9.40;;;;;;;-0.78;100.00;100764.95;109753;1273;22547;-48
2023/12/07 08:57:43;;;;;;;16.60;9.60;;;;;;;-0.76;100.00;100759.23;109315;1262;22550;-48
2023/12/07 09:00:12;;;;;;;18.60;10.30;;;;;;;-0.73;100.00;100759.41;109096;1275;23940;-50
2023/12/07 09:02:41;;;;;;;14.50;8.70;;;;;;;-0.69;100.00;100757.22;109141;1271;22258;-48
2023/12/07 09:05:15;;;;;;;16.80;8.60;;;;;;;-0.66;100.00;100757.02;108732;1275;23011;-44
2023/12/07 09:07:47;;;;;;;18.20;9.90;;;;;;;-0.66;100.00;100757.87;109294;1274;22531;-50
2023/12/07 09:10:14;;;;;;;17.00;10.30;;;;;;;-0.70;100.00;100756.16;109277;1273;22755;-53
2023/12/07 09:12:41;;;;;;;16.60;9.50;;;;;;;-0.72;100.00;100755.70;109704;1280;22840;-44
2023/12/07 09:15:09;;;;;;;20.70;10.00;;;;;;;-0.70;100.00;100757.98;109437;1266;23926;-49
2023/12/07 09:17:40;;;;;;;17.80;9.30;;;;;;;-0.67;100.00;100759.39;109693;1275;22372;-49
2023/12/07 09:20:14;;;;;;;18.60;9.80;;;;;;;-0.62;100.00;100764.42;109271;1273;26734;-45
2023/12/07 09:22:48;;;;;;;16.10;9.10;;;;;;;-0.60;100.00;100760.25;109123;1272;22375;-49
2023/12/07 09:25:17;;;;;;;15.90;9.60;;;;;;;-0.59;100.00;100758.92;108657;1281;22574;-43
2023/12/07 09:27:59;;;;;;;15.40;9.40;;;;;;;-0.58;100.00;100754.91;108933;1272;23277;-42
2023/12/07 09:30:43;;;;;;;17.20;9.80;;;;;;;-0.54;100.00;100752.66;108882;1275;22603;-43
2023/12/07 09:33:34;;;;;;;19.90;10.20;;;;;;;-0.55;100.00;100754.19;108864;1281;22310;-48
2023/12/07 09:36:21;;;;;;;17.40;9.40;;;;;;;-0.56;100.00;100757.20;109842;1271;23299;-50
2023/12/07 09:39:19;;;;;;;15.70;9.50;;;;;;;-0.57;100.00;100756.66;109459;1268;22294;-51
2023/12/07 09:42:31;;;;;;;19.50;10.20;;;;;;;-0.59;100.00;100753.60;109373;1273;22311;-50
2023/12/07 09:45:04;;;;;;;21.60;9.30;;;;;;;-0.62;100.00;100752.29;109797;1276;22468;-49
2023/12/07 09:47:32;;;;;;;14.30;9.60;;;;;;;-0.63;100.00;100745.92;109696;1272;22336;-49
2023/12/07 09:50:06;;;;;;;16.80;9.50;;;;;;;-0.61;100.00;100743.23;109734;1278;23024;-50
2023/12/07 09:52:33;;;;;;;19.30;9.60;;;;;;;-0.58;100.00;100742.33;109207;1271;22414;-42
2023/12/07 09:55:06;;;;;;;20.30;10.10;;;;;;;-0.57;100.00;100740.70;109773;1273;22359;-44
2023/12/07 09:57:33;;;;;;;18.70;10.00;;;;;;;-0.59;100.00;100734.78;109369;1267;22531;-50
2023/12/07 10:00:01;;;;;;;18.60;9.90;;;;;;;-0.61;100.00;100736.06;109755;1280;22375;-50
2023/12/07 10:02:37;;;;;;;22.30;8.90;;;;;;;-0.60;100.00;100735.05;109592;1275;23350;-50
2023/12/07 10:05:16;;;;;;;19.10;9.80;;;;;;;-0.63;100.00;100732.55;109395;1278;22395;-48
2023/12/07 10:07:48;;;;;;;19.90;9.60;;;;;;;-0.65;100.00;100736.02;109574;1271;22617;-51
2023/12/07 10:10:16;;;;;;;19.50;9.70;;;;;;;-0.65;100.00;100733.27;109700;1273;22383;-51
2023/12/07 10:12:57;;;;;;;17.90;9.70;;;;;;;-0.64;100.00;100726.43;109538;1275;22390;-51
2023/12/07 10:15:25;;;;;;;18.50;9.90;;;;;;;-0.67;100.00;100727.52;109591;1276;22409;-52
2023/12/07 10:17:58;;;;;;;22.10;11.50;;;;;;;-0.65;100.00;100726.23;109301;1274;252039;-45
2023/12/07 10:20:30;;;;;;;21.40;10.90;;;;;;;-0.59;100.00;100725.33;109599;1275;22977;-50
2023/12/07 10:23:13;;;;;;;22.00;11.40;;;;;;;-0.55;100.00;100723.35;109636;1272;23082;-44
2023/12/07 10:25:41;;;;;;;21.20;11.20;;;;;;;-0.51;100.00;100722.00;109776;1278;22446;-50
2023/12/07 10:28:14;;;;;;;20.10;10.60;;;;;;;-0.45;100.00;100721.61;108178;1281;22542;-49
2023/12/07 10:30:43;;;;;;;19.30;10.00;;;;;;;-0.40;100.00;100721.36;107964;1272;22570;-44
2023/12/07 10:33:13;;;;;;;15.90;9.10;;;;;;;-0.38;100.00;100719.02;108224;1278;22650;-53
2023/12/07 10:35:45;;;;;;;15.50;9.40;;;;;;;-0.40;100.00;100716.36;109214;1273;23129;-44
2023/12/07 10:38:14;;;;;;;21.30;10.70;;;;;;;-0.42;100.00;100714.39;108678;1273;22466;-45
2023/12/07 10:40:46;;;;;;;19.00;8.40;;;;;;;-0.40;100.00;100713.83;108567;1273;22523;-44
2023/12/07 10:43:14;;;;;;;21.10;10.30;;;;;;;-0.40;100.00;100713.27;109716;1273;22459;-46
2023/12/07 10:45:53;;;;;;;19.20;9.40;;;;;;;-0.42;100.00;100713.00;109282;1275;22700;-46
2023/12/07 10:48:39;;;;;;;18.40;9.60;;;;;;;-0.43;100.00;100713.46;109439;1278;22456;-49
2023/12/07 11:36:09;;;;;;;23.10;10.30;;;;;;;-0.60;100.00;100687.09;107859;1276;24038;-42
2023/12/07 11:39:55;;;;;;;17.00;9.70;;;;;;;-0.62;100.00;100685.61;108851;1273;22974;-49
2023/12/07 11:52:03;;;;;;;18.50;8.40;;;;;;;-0.69;100.00;100683.86;109742;1275;23370;-48
2023/12/07 11:55:07;;;;;;;19.10;8.80;;;;;;;-0.70;100.00;100682.29;109471;1274;23102;-50
2023/12/07 11:57:53;;;;;;;17.20;9.20;;;;;;;-0.71;100.00;100678.65;109688;1273;22409;-41
2023/12/07 12:00:20;;;;;;;17.30;9.10;;;;;;;-0.69;100.00;100677.23;109677;1280;22369;-44
2023/12/07 12:02:49;;;;;;;18.70;9.50;;;;;;;-0.65;100.00;100676.53;109751;1278;22374;-48
2023/12/07 12:05:16;;;;;;;18.10;8.80;;;;;;;-0.64;100.00;100675.73;109737;1275;23240;-42
2023/12/07 12:07:43;;;;;;;19.60;9.50;;;;;;;-0.62;100.00;100677.89;109783;1274;22445;-43
2023/12/07 12:10:10;;;;;;;19.90;9.10;;;;;;;-0.58;100.00;100677.75;109498;1275;22249;-42
2023/12/07 12:12:40;;;;;;;18.90;9.40;;;;;;;-0.53;100.00;100681.28;108875;1280;22267;-48
2023/12/07 12:15:07;;;;;;;16.90;8.90;;;;;;;-0.50;100.00;100687.24;109605;1281;22543;-48
2023/12/07 12:17:35;;;;;;;17.30;9.70;;;;;;;-0.51;100.00;100683.56;109199;1273;23993;-41
2023/12/07 12:20:03;;;;;;;15.10;8.50;;;;;;;-0.51;100.00;100681.73;109702;1280;23217;-44
2023/12/07 12:22:31;;;;;;;16.20;7.60;;;;;;;-0.48;100.00;100682.17;109181;1272;22409;-47
2023/12/07 12:24:59;;;;;;;12.40;7.50;;;;;;;-0.49;100.00;100679.91;109457;1278;22456;-48
2023/12/07 12:27:26;;;;;;;15.90;6.70;;;;;;;-0.53;100.00;100683.67;109666;1273;22500;-50
2023/12/07 12:29:54;;;;;;;13.50;7.40;;;;;;;-0.57;100.00;100682.98;109821;1272;23085;-42
2023/12/07 12:32:22;;;;;;;16.00;9.30;;;;;;;-0.59;100.00;100682.15;109779;1277;23158;-43
2023/12/07 12:34:52;;;;;;;13.40;7.90;;;;;;;-0.59;100.00;100681.98;109211;1275;22405;-48
2023/12/07 12:37:21;;;;;;;14.30;9.20;;;;;;;-0.58;100.00;100685.65;109340;1276;22444;-50
2023/12/07 12:39:49;;;;;;;15.70;8.30;;;;;;;-0.57;100.00;100681.10;109656;1276;22589;-41
2023/12/07 12:42:16;;;;;;;13.40;7.50;;;;;;;-0.57;100.00;100678.71;108901;1272;22580;-47
2023/12/07 12:44:47;;;;;;;11.90;6.80;;;;;;;-0.56;100.00;100678.02;108858;1276;22805;-43
2023/12/07 12:47:16;;;;;;;13.70;7.10;;;;;;;-0.59;100.00;100675.00;109304;1269;23966;-41
2023/12/07 12:49:46;;;;;;;13.20;6.60;;;;;;;-0.59;100.00;100676.85;109361;1273;22422;-48
2023/12/07 12:52:16;;;;;;;13.20;6.70;;;;;;;-0.60;100.00;100678.53;109414;1273;26506;-43
2023/12/07 12:54:44;;;;;;;9.40;6.10;;;;;;;-0.60;100.00;100677.67;109510;1280;22504;-42
2023/12/07 12:57:11;;;;;;;11.80;6.30;;;;;;;-0.58;100.00;100679.67;109700;1281;22986;-49
2023/12/07 12:59:38;;;;;;;9.60;6.30;;;;;;;-0.56;100.00;100676.34;109447;1278;23530;-41
2023/12/07 13:02:09;;;;;;;11.00;6.90;;;;;;;-0.51;100.00;100670.02;109435;1278;22448;-42
2023/12/07 13:04:37;;;;;;;10.50;6.60;;;;;;;-0.49;100.00;100667.22;109532;1280;22994;-42
2023/12/07 13:07:09;;;;;;;13.20;6.90;;;;;;;-0.49;100.00;100668.62;109609;1278;23074;-41
2023/12/07 13:09:36;;;;;;;10.30;6.70;;;;;;;-0.49;100.00;100672.20;109619;1280;22293;-46
2023/12/07 13:12:03;;;;;;;8.90;6.00;;;;;;;-0.51;100.00;100674.01;109673;1261;22881;-48
2023/12/07 13:14:38;;;;;;;11.80;6.30;;;;;;;-0.54;100.00;100671.13;109741;1278;22829;-42
2023/12/07 13:17:07;;;;;;;;;;;;;;;-0.55;100.00;100668.66;109784;1281;22435;-49
2023/12/07 13:19:34;;;;;;;9.10;5.60;;;;;;;-0.57;100.00;100668.26;109760;1280;22279;-43
2023/12/07 13:22:03;;;;;;;12.30;5.70;;;;;;;-0.58;100.00;100668.73;109801;1281;22399;-47
2023/12/07 13:24:30;;;;;;;9.20;5.50;;;;;;;-0.57;100.00;100666.67;109856;1279;22975;-49
2023/12/07 13:26:57;;;;;;;7.80;4.90;;;;;;;-0.57;100.00;100669.27;109860;1278;22324;-48
2023/12/07 13:29:24;;;;;;;9.20;6.10;;;;;;;-0.57;100.00;100671.81;109904;1281;22353;-48
2023/12/07 13:32:03;;;;;;;9.20;5.60;;;;;;;-0.58;100.00;100675.19;109860;1269;23382;-49
2023/12/07 13:34:30;;;;;;;8.90;5.70;;;;;;;-0.57;100.00;100675.80;109839;1277;22919;-45
2023/12/07 13:36:57;;;;;;;8.40;5.80;;;;;;;-0.54;100.00;100674.71;109874;1280;22384;-42
2023/12/07 13:39:26;;;;;;;7.30;5.20;;;;;;;-0.50;100.00;100678.50;109893;1279;22464;-43
2023/12/07 13:41:58;;;;;;;9.10;6.20;;;;;;;-0.52;100.00;100678.59;109940;1280;22305;-43
2023/12/07 13:44:26;;;;;;;9.80;6.30;;;;;;;-0.56;100.00;100678.07;109889;1281;22323;-48
2023/12/07 13:46:58;;;;;;;8.80;5.80;;;;;;;-0.56;100.00;100677.70;109936;1280;23129;-46
2023/12/07 13:49:26;;;;;;;8.30;6.10;;;;;;;-0.54;100.00;100677.98;109911;1281;22945;-48
2023/12/07 13:52:01;;;;;;;9.50;6.10;;;;;;;-0.51;100.00;100678.45;109884;1280;22334;-42
2023/12/07 13:54:37;;;;;;;11.10;6.70;;;;;;;-0.49;100.00;100682.34;109931;1281;22165;-42
2023/12/07 13:57:07;;;;;;;8.60;6.30;;;;;;;-0.49;100.00;100683.88;109766;1280;23024;-42
2023/12/07 13:59:37;;;;;;;10.30;6.70;;;;;;;-0.47;100.00;100684.14;109890;1281;22761;-49
2023/12/07 14:02:04;;;;;;;9.40;5.90;;;;;;;-0.46;100.00;100685.89;109621;1279;22403;-47
2023/12/07 14:04:31;;;;;;;9.20;6.30;;;;;;;-0.46;100.00;100690.20;109895;1281;22331;-42
2023/12/07 14:07:28;;;;;;;11.60;7.50;;;;;;;-0.46;100.00;100690.20;109947;1281;22339;-43
2023/12/07 14:09:55;;;;;;;8.70;6.10;;;;;;;-0.45;100.00;100688.19;109467;1287;23029;-49
2023/12/07 14:13:23;;;;;;;7.70;5.60;;;;;;;-0.46;100.00;100688.98;109352;1286;26579;-48
2023/12/07 14:15:52;;;;;;;10.50;5.90;;;;;;;-0.48;100.00;100691.31;108016;1283;22379;-42
2023/12/07 14:18:23;;;;;;;;;;;;;;;-0.50;100.00;100692.39;106942;1288;25580;-42
2023/12/07 14:20:50;;;;;;;9.50;5.40;;;;;;;-0.51;100.00;100695.42;109539;1287;22434;-42
2023/12/07 14:23:39;;;;;;;7.60;5.60;;;;;;;-0.51;100.00;100700.92;109598;1283;22410;-44
